Time;durP1;ratioP1;P1;durP2;ratioP2;P2;SDS_P1;SDS_P2;PMS_P1;PMS_P2;Temp;Humidity;BMP_temperature;BMP_pressure;BME280_temperature;BME280_humidity;BME280_pressure;Samples;Min_cycle;Max_cycle;Signal;HPM_P1;HPM_P2
2022/12/06 00:01:13;;;;;;;;;;;2.10;99.90;;;;;;5015005;28;19948;-68
2022/12/06 00:03:39;;;;;;;;;;;2.10;99.90;;;;;;5027412;28;19912;-70
2022/12/06 00:06:28;;;;;;;;;;;2.10;99.90;;;;;;5031641;28;19917;-68
2022/12/06 00:08:54;;;;;;;;;;;2.10;99.90;;;;;;5028001;28;19948;-69
2022/12/06 00:11:20;;;;;;;;;;;2.20;99.90;;;;;;5029342;28;19997;-68
2022/12/06 00:13:47;;;;;;;;;;;2.20;99.90;;;;;;5025758;28;20369;-67
2022/12/06 00:16:15;;;;;;;;;;;2.20;99.90;;;;;;5028016;28;19913;-68
2022/12/06 00:18:41;;;;;;;;;;;2.10;99.90;;;;;;5028013;28;19959;-68
2022/12/06 00:21:33;;;;;;;;;;;2.20;99.90;;;;;;5009948;28;20391;-69
2022/12/06 00:24:02;;;;;;;;;;;2.20;99.90;;;;;;5030572;28;19959;-69
2022/12/06 00:26:28;;;;;;;;;;;2.20;99.90;;;;;;5030982;28;20358;-69
2022/12/06 00:28:56;;;;;;;;;;;2.20;99.90;;;;;;5030744;28;19913;-69
2022/12/06 00:31:22;;;;;;;;;;;2.10;99.90;;;;;;5029319;28;20322;-69
2022/12/06 00:33:48;;;;;;;;;;;2.10;99.90;;;;;;5031278;28;19917;-70
2022/12/06 00:36:14;;;;;;;;;;;2.10;99.90;;;;;;5031090;28;19913;-69
2022/12/06 00:38:40;;;;;;;;;;;2.10;99.90;;;;;;5026727;28;20016;-69
2022/12/06 00:41:06;;;;;;;;;;;2.20;99.90;;;;;;5029169;28;20386;-69
2022/12/06 00:43:32;;;;;;;;;;;2.10;99.90;;;;;;5014144;28;20323;-69
2022/12/06 00:45:58;;;;;;;;;;;2.10;99.90;;;;;;5030053;28;19916;-69
2022/12/06 00:48:24;;;;;;;;;;;2.10;99.90;;;;;;5026377;28;19967;-69
2022/12/06 00:50:49;;;;;;;;;;;2.20;99.90;;;;;;5022265;28;20467;-69
2022/12/06 00:53:15;;;;;;;;;;;2.10;99.90;;;;;;5023843;28;19913;-69
2022/12/06 00:55:44;;;;;;;;;;;2.10;99.90;;;;;;5028136;28;20305;-69
2022/12/06 00:58:09;;;;;;;;;;;2.10;99.90;;;;;;5026547;28;19913;-68
2022/12/06 01:00:36;;;;;;;;;;;2.10;99.90;;;;;;5026135;28;19920;-68
2022/12/06 01:03:03;;;;;;;;;;;2.10;99.90;;;;;;5030153;28;19917;-69
2022/12/06 01:05:28;;;;;;;;;;;2.10;99.90;;;;;;5029421;28;19917;-69
2022/12/06 01:07:54;;;;;;;;;;;2.10;99.90;;;;;;5028482;28;20002;-70
2022/12/06 01:10:20;;;;;;;;;;;2.10;99.90;;;;;;5008785;28;19923;-69
2022/12/06 01:12:45;;;;;;;;;;;2.10;99.90;;;;;;5011457;28;20012;-69
2022/12/06 01:15:12;;;;;;;;;;;2.10;99.90;;;;;;5012239;28;19917;-69
2022/12/06 01:17:37;;;;;;;;;;;2.10;99.90;;;;;;5024491;28;19948;-69
2022/12/06 01:20:03;;;;;;;;;;;2.00;99.90;;;;;;5023720;28;20314;-69
2022/12/06 01:22:29;;;;;;;;;;;2.10;99.90;;;;;;5012998;28;19919;-69
2022/12/06 01:24:54;;;;;;;;;;;2.20;99.90;;;;;;5030207;28;20000;-69
2022/12/06 01:27:20;;;;;;;;;;;2.10;99.90;;;;;;5025532;28;20224;-69
2022/12/06 01:29:46;;;;;;;;;;;2.10;99.90;;;;;;5029865;28;19913;-69
2022/12/06 01:32:11;;;;;;;;;;;2.20;99.90;;;;;;5029278;28;19967;-69
2022/12/06 01:34:37;;;;;;;;;;;2.10;99.90;;;;;;5012437;28;19975;-70
2022/12/06 01:37:03;;;;;;;;;;;2.00;99.90;;;;;;4987767;28;1223975;-69
2022/12/06 01:39:29;;;;;;;;;;;2.10;99.90;;;;;;5013846;28;19913;-69
2022/12/06 01:41:55;;;;;;;;;;;2.10;99.90;;;;;;5028939;28;19913;-69
2022/12/06 01:44:39;;;;;;;;;;;2.20;99.90;;;;;;5030450;28;19924;-69
2022/12/06 01:47:09;;;;;;;;;;;2.20;99.90;;;;;;5030490;28;19916;-69
2022/12/06 01:49:35;;;;;;;;;;;2.20;99.90;;;;;;5025163;28;20016;-69
2022/12/06 01:52:01;;;;;;;;;;;2.20;99.90;;;;;;5023090;28;20003;-69
2022/12/06 01:54:27;;;;;;;;;;;2.20;99.90;;;;;;5018043;28;19971;-70
2022/12/06 01:56:53;;;;;;;;;;;2.20;99.90;;;;;;5027720;28;20384;-70
2022/12/06 01:59:18;;;;;;;;;;;2.20;99.90;;;;;;5011984;28;19908;-69
2022/12/06 02:01:44;;;;;;;;;;;2.30;99.90;;;;;;5020260;28;19940;-69
2022/12/06 02:04:10;;;;;;;;;;;2.20;99.90;;;;;;5021756;28;19937;-69
2022/12/06 02:06:36;;;;;;;;;;;2.20;99.90;;;;;;5029000;28;19917;-70
2022/12/06 02:09:02;;;;;;;;;;;2.20;99.90;;;;;;5027691;28;19914;-69
2022/12/06 02:11:28;;;;;;;;;;;2.20;99.90;;;;;;5030486;28;20024;-69
2022/12/06 02:13:54;;;;;;;;;;;2.20;99.90;;;;;;5029898;28;20072;-69
2022/12/06 02:16:35;;;;;;;;;;;2.10;99.90;;;;;;5029701;28;19920;-69
2022/12/06 02:19:09;;;;;;;;;;;2.20;99.90;;;;;;5029695;28;19913;-69
2022/12/06 02:21:50;;;;;;;;;;;2.20;99.90;;;;;;5032390;28;20015;-69
2022/12/06 02:24:48;;;;;;;;;;;2.20;99.90;;;;;;5028470;28;20692;-69
2022/12/06 02:27:19;;;;;;;;;;;2.20;99.90;;;;;;5030685;28;19924;-69
2022/12/06 02:29:48;;;;;;;;;;;2.30;99.90;;;;;;5029504;28;19979;-69
2022/12/06 02:32:16;;;;;;;;;;;2.30;99.90;;;;;;5028853;28;19912;-69
2022/12/06 02:34:43;;;;;;;;;;;2.20;99.90;;;;;;5012417;28;20019;-69
2022/12/06 02:37:13;;;;;;;;;;;2.20;99.90;;;;;;5029298;28;20031;-69
2022/12/06 02:39:42;;;;;;;;;;;2.20;99.90;;;;;;5011609;28;19927;-69
2022/12/06 02:42:10;;;;;;;;;;;2.20;99.90;;;;;;5007894;28;19999;-69
2022/12/06 02:44:39;;;;;;;;;;;2.20;99.90;;;;;;5023463;28;20267;-69
2022/12/06 02:47:06;;;;;;;;;;;2.20;99.90;;;;;;5027196;28;20247;-69
2022/12/06 02:49:32;;;;;;;;;;;2.20;99.90;;;;;;5023980;28;19913;-70
2022/12/06 02:51:57;;;;;;;;;;;2.20;99.90;;;;;;5029252;28;19920;-69
2022/12/06 02:54:23;;;;;;;;;;;2.20;99.90;;;;;;5029475;28;19920;-69
2022/12/06 02:56:49;;;;;;;;;;;2.20;99.90;;;;;;5029873;28;19924;-69
2022/12/06 02:59:14;;;;;;;;;;;2.20;99.90;;;;;;5028521;28;19927;-69
2022/12/06 03:01:42;;;;;;;;;;;2.10;99.90;;;;;;5024319;28;19913;-70
2022/12/06 03:04:10;;;;;;;;;;;2.10;99.90;;;;;;5027565;28;19924;-70
2022/12/06 03:06:36;;;;;;;;;;;2.20;99.90;;;;;;5027330;28;19917;-70
2022/12/06 03:09:05;;;;;;;;;;;2.20;99.90;;;;;;5027070;28;19928;-70
2022/12/06 03:11:50;;;;;;;;;;;2.10;99.90;;;;;;5029784;28;19912;-69
2022/12/06 03:14:18;;;;;;;;;;;2.20;99.90;;;;;;5024931;28;19913;-69
2022/12/06 03:16:48;;;;;;;;;;;2.00;99.90;;;;;;5011428;28;19990;-69
2022/12/06 03:19:15;;;;;;;;;;;2.00;99.90;;;;;;5029020;28;19913;-69
2022/12/06 03:21:42;;;;;;;;;;;2.00;99.90;;;;;;5028983;28;20003;-69
2022/12/06 03:24:09;;;;;;;;;;;2.00;99.90;;;;;;5014771;28;19913;-70
2022/12/06 03:26:35;;;;;;;;;;;2.00;99.90;;;;;;5009160;28;20329;-70
2022/12/06 03:29:00;;;;;;;;;;;2.00;99.90;;;;;;5026219;28;20642;-69
2022/12/06 03:31:27;;;;;;;;;;;2.00;99.90;;;;;;5028777;28;20050;-70
2022/12/06 03:33:54;;;;;;;;;;;2.10;99.90;;;;;;5023299;28;19913;-70
2022/12/06 03:36:19;;;;;;;;;;;2.00;99.90;;;;;;5024719;28;20283;-70
2022/12/06 03:38:51;;;;;;;;;;;2.00;99.90;;;;;;5028769;28;20062;-69
2022/12/06 03:41:17;;;;;;;;;;;2.10;99.90;;;;;;5012137;28;19924;-69
2022/12/06 03:43:43;;;;;;;;;;;2.00;99.90;;;;;;5027200;28;19913;-70
2022/12/06 03:46:12;;;;;;;;;;;2.00;99.90;;;;;;5028545;28;19912;-70
2022/12/06 03:48:42;;;;;;;;;;;2.00;99.90;;;;;;5011267;28;20035;-70
2022/12/06 03:51:09;;;;;;;;;;;2.00;99.90;;;;;;5009662;28;20449;-70
2022/12/06 03:53:35;;;;;;;;;;;2.10;99.90;;;;;;5024979;28;20599;-70
2022/12/06 03:56:02;;;;;;;;;;;2.00;99.90;;;;;;5011813;28;19920;-69
2022/12/06 03:58:28;;;;;;;;;;;2.00;99.90;;;;;;5028334;28;20635;-69
2022/12/06 04:00:54;;;;;;;;;;;2.00;99.90;;;;;;5008014;28;19917;-69
2022/12/06 04:03:19;;;;;;;;;;;2.10;99.90;;;;;;5024704;28;19913;-70
2022/12/06 04:05:45;;;;;;;;;;;2.10;99.90;;;;;;5028115;28;19917;-70
2022/12/06 04:08:10;;;;;;;;;;;2.00;99.90;;;;;;5025224;28;19952;-69
2022/12/06 04:10:36;;;;;;;;;;;2.00;99.90;;;;;;5028300;28;19958;-69
2022/12/06 04:13:04;;;;;;;;;;;2.00;99.90;;;;;;5026773;28;19967;-69
2022/12/06 04:15:34;;;;;;;;;;;2.00;99.90;;;;;;5011577;28;19963;-69
2022/12/06 04:18:09;;;;;;;;;;;2.10;99.90;;;;;;5028180;28;19939;-69
2022/12/06 04:23:30;;;;;;;;;;;2.10;99.90;;;;;;5028079;28;19916;-69
2022/12/06 04:25:56;;;;;;;;;;;2.00;99.90;;;;;;5029438;28;19923;-69
2022/12/06 04:39:18;;;;;;;;;;;2.00;99.90;;;;;;5031485;28;19931;-69
2022/12/06 04:44:28;;;;;;;;;;;2.00;99.90;;;;;;5032519;28;19913;-70
2022/12/06 04:46:54;;;;;;;;;;;2.00;99.90;;;;;;5031514;28;19923;-69
2022/12/06 04:49:19;;;;;;;;;;;1.90;99.90;;;;;;5030884;28;19920;-69
2022/12/06 04:51:45;;;;;;;;;;;2.00;99.90;;;;;;5027849;28;19913;-69
2022/12/06 04:54:11;;;;;;;;;;;2.00;99.90;;;;;;5031146;28;19912;-70
2022/12/06 04:56:36;;;;;;;;;;;2.00;99.90;;;;;;5030874;28;19948;-69
2022/12/06 04:59:02;;;;;;;;;;;2.10;99.90;;;;;;5031657;28;19948;-69
2022/12/06 05:01:28;;;;;;;;;;;2.00;99.90;;;;;;5031655;28;19913;-70
2022/12/06 05:03:53;;;;;;;;;;;2.10;99.90;;;;;;5031402;28;19920;-69
2022/12/06 05:06:19;;;;;;;;;;;2.00;99.90;;;;;;5030113;28;19928;-70
2022/12/06 05:08:45;;;;;;;;;;;2.00;99.90;;;;;;5014572;28;19952;-70
2022/12/06 05:11:10;;;;;;;;;;;2.00;99.90;;;;;;5027915;28;19942;-70
2022/12/06 05:13:36;;;;;;;;;;;2.00;99.90;;;;;;5032415;28;19916;-70
2022/12/06 05:16:02;;;;;;;;;;;1.90;99.90;;;;;;5031177;28;20315;-70
2022/12/06 05:18:29;;;;;;;;;;;2.00;99.90;;;;;;5027007;28;19920;-70
2022/12/06 05:21:05;;;;;;;;;;;1.90;99.90;;;;;;5030860;28;19917;-69
2022/12/06 05:23:31;;;;;;;;;;;1.90;99.90;;;;;;5030604;28;19912;-70
2022/12/06 05:25:58;;;;;;;;;;;1.90;99.90;;;;;;5014627;28;19928;-70
2022/12/06 05:28:24;;;;;;;;;;;1.90;99.90;;;;;;5029753;28;19913;-69
2022/12/06 05:30:49;;;;;;;;;;;1.90;99.90;;;;;;5030719;28;19913;-70
2022/12/06 05:33:15;;;;;;;;;;;1.90;99.90;;;;;;5018754;28;20814;-70
2022/12/06 05:35:40;;;;;;;;;;;2.00;99.90;;;;;;5027733;28;19924;-70
2022/12/06 05:38:06;;;;;;;;;;;2.00;99.90;;;;;;5030373;28;19928;-70
2022/12/06 05:40:31;;;;;;;;;;;1.90;99.90;;;;;;5030143;28;19927;-69
2022/12/06 05:42:57;;;;;;;;;;;1.90;99.90;;;;;;5029453;28;19916;-70
2022/12/06 05:45:23;;;;;;;;;;;2.00;99.90;;;;;;5030572;28;20354;-70
2022/12/06 05:47:48;;;;;;;;;;;1.80;99.90;;;;;;5022137;28;20638;-70
2022/12/06 05:50:14;;;;;;;;;;;1.80;99.90;;;;;;5021309;28;19918;-70
2022/12/06 05:52:40;;;;;;;;;;;1.90;99.90;;;;;;5030270;28;19996;-70
2022/12/06 05:55:06;;;;;;;;;;;1.90;99.90;;;;;;5029592;28;19920;-70
2022/12/06 05:57:31;;;;;;;;;;;1.90;99.90;;;;;;5025430;28;19921;-71
2022/12/06 05:59:57;;;;;;;;;;;1.80;99.90;;;;;;5025857;28;20015;-70
2022/12/06 06:02:23;;;;;;;;;;;1.80;99.90;;;;;;5030181;28;19909;-70
2022/12/06 06:04:48;;;;;;;;;;;1.80;99.90;;;;;;5030191;28;20319;-70
2022/12/06 06:07:14;;;;;;;;;;;1.80;99.90;;;;;;5022652;28;19932;-69
2022/12/06 06:09:39;;;;;;;;;;;1.90;99.90;;;;;;5029851;28;19923;-70
2022/12/06 06:12:05;;;;;;;;;;;1.90;99.90;;;;;;5024626;28;19909;-71
2022/12/06 06:14:31;;;;;;;;;;;1.90;99.90;;;;;;5030776;28;20284;-71
2022/12/06 06:16:56;;;;;;;;;;;1.90;99.90;;;;;;5026297;28;19912;-70
2022/12/06 06:19:23;;;;;;;;;;;1.90;99.90;;;;;;5030507;28;20371;-69
2022/12/06 06:21:49;;;;;;;;;;;1.90;99.90;;;;;;5029229;28;20341;-70
2022/12/06 06:24:14;;;;;;;;;;;1.80;99.90;;;;;;5030176;28;19983;-69
2022/12/06 06:26:40;;;;;;;;;;;1.90;99.90;;;;;;5025235;28;20315;-70
2022/12/06 06:29:05;;;;;;;;;;;1.80;99.90;;;;;;5026857;28;19916;-69
2022/12/06 06:31:31;;;;;;;;;;;1.90;99.90;;;;;;5029405;28;19924;-69
2022/12/06 06:33:57;;;;;;;;;;;1.80;99.90;;;;;;5029571;28;20433;-70
2022/12/06 06:36:22;;;;;;;;;;;1.80;99.90;;;;;;5017305;28;20018;-70
2022/12/06 06:38:49;;;;;;;;;;;1.90;99.90;;;;;;5026059;28;20200;-69
2022/12/06 06:41:15;;;;;;;;;;;1.80;99.90;;;;;;5013341;28;20329;-70
2022/12/06 06:43:41;;;;;;;;;;;1.80;99.90;;;;;;5030188;28;19909;-70
2022/12/06 06:46:07;;;;;;;;;;;1.80;99.90;;;;;;5026257;28;19920;-70
2022/12/06 06:48:33;;;;;;;;;;;1.80;99.90;;;;;;5018781;28;20357;-70
2022/12/06 06:51:09;;;;;;;;;;;1.90;99.90;;;;;;5024562;28;19947;-70
2022/12/06 06:53:34;;;;;;;;;;;1.80;99.90;;;;;;5011760;28;19913;-70
2022/12/06 06:56:01;;;;;;;;;;;1.80;99.90;;;;;;5028337;28;19924;-70
2022/12/06 06:58:27;;;;;;;;;;;1.80;99.90;;;;;;5028336;28;19913;-69
2022/12/06 07:01:10;;;;;;;;;;;1.80;99.90;;;;;;5029251;28;20014;-69
2022/12/06 07:03:37;;;;;;;;;;;1.80;99.90;;;;;;5026966;28;19913;-70
2022/12/06 07:06:06;;;;;;;;;;;1.80;99.90;;;;;;5018089;28;19917;-70
2022/12/06 07:08:32;;;;;;;;;;;1.80;99.90;;;;;;5026304;28;19924;-69
2022/12/06 07:10:57;;;;;;;;;;;1.80;99.90;;;;;;5024034;28;19917;-70
2022/12/06 07:13:23;;;;;;;;;;;1.90;99.90;;;;;;5023706;28;20510;-71
2022/12/06 07:15:49;;;;;;;;;;;1.90;99.90;;;;;;5028073;28;19912;-70
2022/12/06 07:18:18;;;;;;;;;;;1.90;99.90;;;;;;5028876;28;19913;-70
2022/12/06 07:20:44;;;;;;;;;;;1.90;99.90;;;;;;5028810;28;19956;-70
2022/12/06 07:23:10;;;;;;;;;;;1.90;99.90;;;;;;5028838;28;19913;-70
2022/12/06 07:25:35;;;;;;;;;;;2.00;99.90;;;;;;5028979;28;19924;-68
2022/12/06 07:28:01;;;;;;;;;;;2.00;99.90;;;;;;5028653;28;19913;-69
2022/12/06 07:30:26;;;;;;;;;;;2.00;99.90;;;;;;5028236;28;19913;-70
2022/12/06 07:32:52;;;;;;;;;;;2.00;99.90;;;;;;5025322;28;19924;-70
2022/12/06 07:35:18;;;;;;;;;;;2.00;99.90;;;;;;5027309;28;19920;-70
2022/12/06 07:37:44;;;;;;;;;;;2.00;99.90;;;;;;5026945;28;19917;-70
2022/12/06 07:40:10;;;;;;;;;;;2.00;99.90;;;;;;5020536;28;19995;-70
2022/12/06 07:45:20;;;;;;;;;;;2.00;99.90;;;;;;5008463;28;19975;-68
2022/12/06 07:47:46;;;;;;;;;;;2.00;99.90;;;;;;5028037;28;19948;-68
2022/12/06 07:50:15;;;;;;;;;;;2.10;99.90;;;;;;5022566;28;19923;-70
2022/12/06 07:52:41;;;;;;;;;;;2.10;99.90;;;;;;5028079;28;19913;-71
2022/12/06 07:55:07;;;;;;;;;;;2.10;99.90;;;;;;5029033;28;19909;-70
2022/12/06 07:57:32;;;;;;;;;;;2.10;99.90;;;;;;5023594;28;20331;-70
2022/12/06 07:59:58;;;;;;;;;;;2.10;99.90;;;;;;5028489;28;19944;-70
2022/12/06 08:02:27;;;;;;;;;;;2.10;99.90;;;;;;5027257;28;19913;-70
2022/12/06 08:04:53;;;;;;;;;;;2.10;99.90;;;;;;5031345;28;19954;-70
2022/12/06 08:07:19;;;;;;;;;;;2.10;99.90;;;;;;5029614;28;20339;-71
2022/12/06 08:09:45;;;;;;;;;;;2.20;99.90;;;;;;5032064;28;19912;-70
2022/12/06 08:12:10;;;;;;;;;;;2.10;99.90;;;;;;5030979;28;20311;-71
2022/12/06 08:14:36;;;;;;;;;;;2.20;99.90;;;;;;5026956;28;19920;-70
2022/12/06 08:17:02;;;;;;;;;;;2.20;99.90;;;;;;5031848;28;19995;-70
2022/12/06 08:19:28;;;;;;;;;;;2.20;99.90;;;;;;5031344;28;19996;-71
2022/12/06 08:21:54;;;;;;;;;;;2.30;99.90;;;;;;5031830;28;20723;-72
2022/12/06 08:24:20;;;;;;;;;;;2.30;99.90;;;;;;5031297;28;20276;-71
2022/12/06 08:26:46;;;;;;;;;;;2.30;99.90;;;;;;5022056;28;20299;-70
2022/12/06 08:29:11;;;;;;;;;;;2.30;99.90;;;;;;5031820;28;20780;-69
2022/12/06 08:31:37;;;;;;;;;;;2.30;99.90;;;;;;5031126;28;19917;-70
2022/12/06 08:34:03;;;;;;;;;;;2.40;99.90;;;;;;5031001;28;20251;-70
2022/12/06 08:36:28;;;;;;;;;;;2.40;99.90;;;;;;5025648;28;19913;-69
2022/12/06 08:38:54;;;;;;;;;;;2.30;99.90;;;;;;5012475;28;19921;-70
2022/12/06 08:44:05;;;;;;;;;;;2.30;99.90;;;;;;5032185;28;20628;-70
2022/12/06 08:46:31;;;;;;;;;;;2.40;99.90;;;;;;5029371;28;20016;-71
2022/12/06 08:48:56;;;;;;;;;;;2.40;99.90;;;;;;5022661;28;19913;-71
2022/12/06 08:51:22;;;;;;;;;;;2.40;99.90;;;;;;5029857;28;19913;-70
2022/12/06 08:53:47;;;;;;;;;;;2.40;99.90;;;;;;5027513;28;19952;-70
2022/12/06 08:56:13;;;;;;;;;;;2.40;99.90;;;;;;5031937;28;19967;-71
2022/12/06 08:58:39;;;;;;;;;;;2.40;99.90;;;;;;5030814;28;19909;-71
2022/12/06 09:01:08;;;;;;;;;;;2.40;99.90;;;;;;5031730;28;20231;-70
2022/12/06 09:03:34;;;;;;;;;;;2.40;99.90;;;;;;5031283;28;20436;-71
2022/12/06 09:06:01;;;;;;;;;;;2.50;99.90;;;;;;5032360;28;19960;-71
2022/12/06 09:08:26;;;;;;;;;;;2.50;99.90;;;;;;5029455;28;19947;-65
2022/12/06 09:10:52;;;;;;;;;;;2.50;99.90;;;;;;5026980;28;19917;-66
2022/12/06 09:13:17;;;;;;;;;;;2.50;99.90;;;;;;5013297;28;19909;-66
2022/12/06 09:15:46;;;;;;;;;;;2.60;99.90;;;;;;5017783;28;20003;-66
2022/12/06 09:18:12;;;;;;;;;;;2.60;99.90;;;;;;4995992;28;20711;-66
2022/12/06 09:20:40;;;;;;;;;;;2.60;99.90;;;;;;5025602;28;19909;-66
2022/12/06 09:23:06;;;;;;;;;;;2.60;99.90;;;;;;5030062;28;19913;-67
2022/12/06 09:25:31;;;;;;;;;;;2.70;99.90;;;;;;5029435;28;19921;-65
2022/12/06 09:27:57;;;;;;;;;;;2.70;99.90;;;;;;5024702;28;19923;-67
2022/12/06 09:30:23;;;;;;;;;;;2.70;99.90;;;;;;4994209;28;19913;-66
2022/12/06 09:32:48;;;;;;;;;;;2.70;99.90;;;;;;5019387;28;19913;-66
2022/12/06 09:35:14;;;;;;;;;;;2.70;99.90;;;;;;5014146;28;19917;-65
2022/12/06 09:37:40;;;;;;;;;;;2.80;99.90;;;;;;5003221;28;20355;-66
2022/12/06 09:40:10;;;;;;;;;;;2.80;99.90;;;;;;5030613;28;19919;-66
2022/12/06 09:42:36;;;;;;;;;;;2.80;99.90;;;;;;5028690;28;19924;-65
2022/12/06 09:45:04;;;;;;;;;;;2.80;99.90;;;;;;5031244;28;19920;-66
2022/12/06 09:47:39;;;;;;;;;;;2.80;99.90;;;;;;5012780;28;19921;-67
2022/12/06 09:50:08;;;;;;;;;;;2.80;99.90;;;;;;5026370;28;19912;-65
2022/12/06 09:52:36;;;;;;;;;;;2.80;99.90;;;;;;5029239;28;20274;-65
2022/12/06 09:55:17;;;;;;;;;;;2.80;99.90;;;;;;5029538;28;19927;-65
2022/12/06 09:57:49;;;;;;;;;;;2.80;99.90;;;;;;5027059;28;20228;-65
2022/12/06 10:00:16;;;;;;;;;;;2.90;99.90;;;;;;5030445;28;19917;-66
2022/12/06 10:03:01;;;;;;;;;;;2.90;99.90;;;;;;5007307;28;19909;-66
2022/12/06 10:05:29;;;;;;;;;;;2.90;99.90;;;;;;5023385;28;19913;-66
2022/12/06 10:07:57;;;;;;;;;;;2.90;99.90;;;;;;5029448;28;19924;-65
2022/12/06 10:10:23;;;;;;;;;;;2.90;99.90;;;;;;5029277;28;20000;-66
2022/12/06 10:13:02;;;;;;;;;;;2.90;99.90;;;;;;5027928;28;20007;-65
2022/12/06 10:15:31;;;;;;;;;;;2.90;99.90;;;;;;5012697;28;19913;-66
2022/12/06 10:18:02;;;;;;;;;;;3.00;99.90;;;;;;5028293;28;19913;-65
2022/12/06 10:20:27;;;;;;;;;;;3.00;99.90;;;;;;5025434;28;20004;-66
2022/12/06 10:23:02;;;;;;;;;;;3.00;99.90;;;;;;5027377;28;20044;-65
2022/12/06 10:25:33;;;;;;;;;;;3.00;99.90;;;;;;5030109;28;19960;-65
2022/12/06 10:28:18;;;;;;;;;;;3.10;99.90;;;;;;5029298;28;19913;-66
2022/12/06 10:30:49;;;;;;;;;;;3.10;99.90;;;;;;5012216;28;19923;-65
2022/12/06 10:33:18;;;;;;;;;;;3.10;99.90;;;;;;5024993;28;19961;-66
2022/12/06 10:35:55;;;;;;;;;;;3.10;99.90;;;;;;5028840;28;19917;-65
2022/12/06 10:38:29;;;;;;;;;;;3.10;99.90;;;;;;5007859;28;19925;-65
2022/12/06 10:41:00;;;;;;;;;;;3.20;99.90;;;;;;5027710;28;19935;-65
2022/12/06 10:43:35;;;;;;;;;;;3.20;99.90;;;;;;5029882;28;20637;-67
2022/12/06 10:48:45;;;;;;;;;;;3.30;99.90;;;;;;5026898;28;19924;-67
2022/12/06 10:51:11;;;;;;;;;;;3.30;99.90;;;;;;5030396;28;20254;-72
2022/12/06 10:53:39;;;;;;;;;;;3.30;99.90;;;;;;5022833;28;20004;-72
2022/12/06 10:56:06;;;;;;;;;;;3.30;99.90;;;;;;5029240;28;19913;-72
2022/12/06 10:58:41;;;;;;;;;;;3.30;99.90;;;;;;5019937;28;19917;-72
2022/12/06 11:01:15;;;;;;;;;;;3.40;99.90;;;;;;5012686;28;19971;-72
2022/12/06 11:03:45;;;;;;;;;;;3.40;99.90;;;;;;5027417;28;19917;-71
2022/12/06 11:06:34;;;;;;;;;;;3.40;99.90;;;;;;5028807;28;19927;-72
2022/12/06 11:09:14;;;;;;;;;;;3.40;99.90;;;;;;5022945;28;19913;-72
2022/12/06 11:11:39;;;;;;;;;;;3.50;99.90;;;;;;5022608;28;19982;-72
2022/12/06 11:14:14;;;;;;;;;;;3.50;99.90;;;;;;5012967;28;20620;-72
2022/12/06 11:16:42;;;;;;;;;;;3.50;99.90;;;;;;5023884;28;19920;-72
2022/12/06 11:19:46;;;;;;;;;;;3.50;99.90;;;;;;5028900;28;19919;-71
2022/12/06 11:22:24;;;;;;;;;;;3.50;99.90;;;;;;5022744;28;19916;-71
2022/12/06 11:24:51;;;;;;;;;;;3.50;99.90;;;;;;5010545;28;20389;-73
2022/12/06 11:27:21;;;;;;;;;;;3.50;99.90;;;;;;5015261;28;19917;-73
2022/12/06 11:29:47;;;;;;;;;;;3.50;99.90;;;;;;5028385;28;19917;-72
2022/12/06 11:32:12;;;;;;;;;;;3.50;99.90;;;;;;5027770;28;19920;-73
2022/12/06 11:34:40;;;;;;;;;;;3.50;99.90;;;;;;5013139;28;20679;-73
2022/12/06 11:37:06;;;;;;;;;;;3.50;99.90;;;;;;5012132;28;19944;-72
2022/12/06 11:39:32;;;;;;;;;;;3.60;99.90;;;;;;5032011;28;19921;-73
2022/12/06 11:41:58;;;;;;;;;;;3.60;99.90;;;;;;5032505;28;20399;-72
2022/12/06 11:44:25;;;;;;;;;;;3.60;99.90;;;;;;5031631;28;19924;-72
2022/12/06 11:46:53;;;;;;;;;;;3.60;99.90;;;;;;5027284;28;19944;-73
2022/12/06 11:49:22;;;;;;;;;;;3.70;99.90;;;;;;5031290;28;19953;-73
2022/12/06 11:51:48;;;;;;;;;;;3.70;99.90;;;;;;5031877;28;19913;-72
2022/12/06 11:54:16;;;;;;;;;;;3.70;99.90;;;;;;5024512;28;20534;-73
2022/12/06 11:56:42;;;;;;;;;;;3.70;99.90;;;;;;5032579;28;20427;-72
2022/12/06 11:59:27;;;;;;;;;;;3.70;99.90;;;;;;5030734;28;20019;-73
2022/12/06 12:01:54;;;;;;;;;;;3.70;99.90;;;;;;5033601;28;19917;-72
2022/12/06 12:04:38;;;;;;;;;;;3.70;99.90;;;;;;5028898;28;19917;-73
2022/12/06 12:07:07;;;;;;;;;;;3.70;99.90;;;;;;5033016;28;20255;-71
2022/12/06 12:09:34;;;;;;;;;;;3.70;99.90;;;;;;5029163;28;19924;-72
2022/12/06 12:12:01;;;;;;;;;;;3.70;99.90;;;;;;5028463;28;19916;-71
2022/12/06 12:14:29;;;;;;;;;;;3.70;99.90;;;;;;5031912;28;19944;-72
2022/12/06 12:16:57;;;;;;;;;;;3.70;99.90;;;;;;5031718;28;19912;-71
2022/12/06 12:19:40;;;;;;;;;;;3.70;99.90;;;;;;5024640;28;19916;-72
2022/12/06 12:22:12;;;;;;;;;;;3.70;99.90;;;;;;5030441;28;19913;-72
2022/12/06 12:24:42;;;;;;;;;;;3.70;99.90;;;;;;5031926;28;19913;-72
2022/12/06 12:27:27;;;;;;;;;;;3.70;99.90;;;;;;5032346;28;20242;-71
2022/12/06 12:30:11;;;;;;;;;;;3.70;99.90;;;;;;5030720;28;19917;-72
2022/12/06 12:32:37;;;;;;;;;;;3.70;99.90;;;;;;5032099;28;19956;-72
2022/12/06 12:35:17;;;;;;;;;;;3.70;99.90;;;;;;5029429;28;20404;-72
2022/12/06 12:37:42;;;;;;;;;;;3.70;99.90;;;;;;5028751;28;19929;-72
2022/12/06 12:40:20;;;;;;;;;;;3.80;99.90;;;;;;5031274;28;20025;-72
2022/12/06 12:42:45;;;;;;;;;;;3.80;99.90;;;;;;5031735;28;19913;-72
2022/12/06 12:45:13;;;;;;;;;;;3.80;99.90;;;;;;5028065;28;19913;-72
2022/12/06 12:47:39;;;;;;;;;;;3.80;99.90;;;;;;5010252;28;19913;-71
2022/12/06 12:50:19;;;;;;;;;;;3.80;99.90;;;;;;5029328;28;19913;-71
2022/12/06 12:52:45;;;;;;;;;;;3.80;99.90;;;;;;5030707;28;20000;-71
2022/12/06 12:55:14;;;;;;;;;;;3.80;99.90;;;;;;5013485;28;20465;-72
2022/12/06 12:57:40;;;;;;;;;;;3.80;99.90;;;;;;5032136;28;19920;-72
2022/12/06 13:00:06;;;;;;;;;;;3.80;99.90;;;;;;5031042;28;19937;-71
2022/12/06 13:02:33;;;;;;;;;;;3.80;99.90;;;;;;5031078;28;20425;-72
2022/12/06 13:05:09;;;;;;;;;;;3.80;99.90;;;;;;4997446;28;19952;-72
2022/12/06 13:07:36;;;;;;;;;;;3.80;99.90;;;;;;5014648;28;19917;-72
2022/12/06 13:10:03;;;;;;;;;;;3.80;99.90;;;;;;5031291;28;20756;-72
2022/12/06 13:12:35;;;;;;;;;;;3.80;99.90;;;;;;5028596;28;19923;-72
2022/12/06 13:15:04;;;;;;;;;;;3.80;99.90;;;;;;5031753;28;20323;-71
2022/12/06 13:17:31;;;;;;;;;;;3.80;99.90;;;;;;5024401;28;19996;-73
2022/12/06 13:19:56;;;;;;;;;;;3.90;99.90;;;;;;5008000;28;19916;-72
2022/12/06 13:22:24;;;;;;;;;;;3.90;99.90;;;;;;5020901;28;19984;-73
2022/12/06 13:25:00;;;;;;;;;;;3.90;99.90;;;;;;5030297;28;19921;-71
2022/12/06 13:27:25;;;;;;;;;;;3.80;99.90;;;;;;5028759;28;19924;-71
2022/12/06 13:29:53;;;;;;;;;;;3.80;99.90;;;;;;5013859;28;19924;-71
2022/12/06 13:32:28;;;;;;;;;;;3.90;99.90;;;;;;5014107;28;20382;-72
2022/12/06 13:34:54;;;;;;;;;;;3.90;99.90;;;;;;5013093;28;20338;-72
2022/12/06 13:37:33;;;;;;;;;;;3.90;99.90;;;;;;5013807;28;20008;-72
2022/12/06 13:39:58;;;;;;;;;;;3.90;99.90;;;;;;5030415;28;19913;-71
2022/12/06 13:42:33;;;;;;;;;;;3.80;99.90;;;;;;5006938;28;19917;-71
2022/12/06 13:44:59;;;;;;;;;;;3.80;99.90;;;;;;5030012;28;20837;-72
2022/12/06 13:47:27;;;;;;;;;;;3.80;99.90;;;;;;5012454;28;19917;-71
2022/12/06 13:49:53;;;;;;;;;;;3.70;99.90;;;;;;5013141;28;19912;-72
2022/12/06 13:52:38;;;;;;;;;;;3.70;99.90;;;;;;5029648;28;19913;-72
2022/12/06 13:55:30;;;;;;;;;;;3.80;99.90;;;;;;5029051;28;20015;-71
2022/12/06 13:57:58;;;;;;;;;;;3.80;99.90;;;;;;5024748;28;19917;-72
2022/12/06 14:00:30;;;;;;;;;;;3.80;99.90;;;;;;5028942;28;19917;-72
2022/12/06 14:03:31;;;;;;;;;;;3.80;99.90;;;;;;5030064;28;19909;-71
2022/12/06 14:05:56;;;;;;;;;;;3.80;99.90;;;;;;5009058;28;20052;-72
2022/12/06 14:08:34;;;;;;;;;;;3.80;99.90;;;;;;5029789;28;19987;-71
2022/12/06 14:11:03;;;;;;;;;;;3.90;99.90;;;;;;5030092;28;19917;-72
2022/12/06 14:13:29;;;;;;;;;;;3.90;99.90;;;;;;5028730;28;20020;-71
2022/12/06 14:15:55;;;;;;;;;;;3.90;99.90;;;;;;5030071;28;19940;-72
2022/12/06 14:18:21;;;;;;;;;;;3.90;99.90;;;;;;5009051;28;19913;-71
2022/12/06 14:20:48;;;;;;;;;;;3.90;99.90;;;;;;5011655;28;19970;-71
2022/12/06 14:23:24;;;;;;;;;;;3.90;99.90;;;;;;5028958;28;19928;-71
2022/12/06 14:25:50;;;;;;;;;;;3.80;99.90;;;;;;5029149;28;20275;-72
2022/12/06 14:28:17;;;;;;;;;;;3.80;99.90;;;;;;5011593;28;19913;-72
2022/12/06 14:30:44;;;;;;;;;;;3.80;99.90;;;;;;5013106;28;20374;-72
2022/12/06 14:33:17;;;;;;;;;;;3.80;99.90;;;;;;5029729;28;20039;-71
2022/12/06 14:35:46;;;;;;;;;;;3.90;99.90;;;;;;5027217;28;19913;-72
2022/12/06 14:38:22;;;;;;;;;;;3.80;99.90;;;;;;5028899;28;19938;-72
2022/12/06 14:43:32;;;;;;;;;;;3.80;99.90;;;;;;5026546;28;19932;-71
2022/12/06 14:45:58;;;;;;;;;;;3.80;99.90;;;;;;5012258;28;20511;-71
2022/12/06 14:48:23;;;;;;;;;;;3.80;99.90;;;;;;5029903;28;19913;-71
2022/12/06 14:50:55;;;;;;;;;;;3.80;99.90;;;;;;5026009;28;19913;-71
2022/12/06 14:53:31;;;;;;;;;;;3.80;99.90;;;;;;5025600;28;19920;-71
2022/12/06 14:55:57;;;;;;;;;;;3.80;99.90;;;;;;5028579;28;19963;-71
2022/12/06 14:58:36;;;;;;;;;;;3.80;99.90;;;;;;5029441;28;19952;-71
2022/12/06 15:01:05;;;;;;;;;;;3.70;99.90;;;;;;5027783;28;19913;-71
2022/12/06 15:03:31;;;;;;;;;;;3.70;99.90;;;;;;5011526;28;19924;-72
2022/12/06 15:06:09;;;;;;;;;;;3.70;99.90;;;;;;5027114;28;19916;-72